Airfield :
LOGIN :

Register | Disclaimer

   EN    FR    IT 

 










Legend :    VFR   Marginal VFR   IFR   Intensive IFR   Very Intensive IFR
Visi :
Ceiling :
>= 8 km
>= 3000ft
5 to 8 km
1000 to 3000 ft
1500m to 5 km
500 to 1000 ft
800 to 1500m
200 to 500 ft
< 800m
< 200 ft
Symbols :   Thunderstorms  Fog  Heavy snow  Heavy precipitations  Wind > 20 kt
SIGMETs :     Misc.  Thunderstorms  Icing  Turbulence  Mountain Waves  Volcanic Ashes







- Airport Elevation : 529 ft
- IATA code : CHR
- Download approach charts


LFLX - Chateauroux

CURRENT METAR :
  • 262100Z AUTO 01001KT 7000 1000 R21/1300U NSC 13/13 Q1022 BECMG 4000 BR

EXPIRED METARs :
  • 262030Z AUTO 00000KT 9999 FEW024 SCT034 14/13 Q1022 BECMG 4000 BR
  • 262000Z AUTO 00000KT 9999 BKN024 BKN029 14/13 Q1022 BECMG 4000 BR
  • 261930Z AUTO 00000KT 9999 BKN024 14/13 Q1022 BECMG 4000 BR
  • 261900Z AUTO 29001KT CAVOK 15/13 Q1022 BECMG 4000 BR
  • 261830Z AUTO 33002KT 9999 FEW026 15/13 Q1022 BECMG 4000 BR

TAF AMD TAF LFLX
Valid from the 26 at 20:00 until the 28 at 00:00 UTC


262045Z 2620/2724 VRB02KT CAVOK
BECMG 2621/2624 VRB02KT 4000 BR
TEMPO 2700/2708 0800 BCFG OVC002
PROB40
TEMPO 2700/2707 0300 FG VV///
BECMG 2707/2709 BKN010
BECMG 2710/2712 10004KT SCT030
BECMG 2714/2716 CAVOK
No reported NOTAMs for that airfield.



MET'MAP, your aeronautical weather chart ! - Copyright ORBIFLY December 2007 - Disclaimer

ORBIFLY MET'MAP TEAM :

Programming & Development : Alexandra Zaïnal
Concept & Development : Baudouin d'Aumeries
Co-Development & Prog : Marc-Olivier Méhu
Technical & hardware support : Manuel Goepfert

Contact : metmap@orbifly.com




SOURCES & CREDITS :

   NOAA